This is the latest recevied weather packets stored in our database for station/object EA1DB-1. If no packets are shown the sender has not sent any weather packets the latest 10 day(s).
| Time | Temp. | Humidity | Pressure | Rain* | Wind** | Luminosity | Snow |
|---|---|---|---|---|---|---|---|
| 1778037397 | 12.78° C | 75% | 1011.5 hPa | 0 mm | - | - | - |
| 1778026597 | 13.33° C | 79% | 1012.9 hPa | 0 mm | - | - | - |
| 1778025973 | 13.89° C | 79% | 1013 hPa | 0 mm | - | - | - |
| 1778024197 | 13.89° C | 77% | 1012.9 hPa | 0 mm | - | - | - |
| 1778023574 | 13.89° C | 77% | 1013 hPa | 0 mm | - | - | - |
| 1778013973 | 14.44° C | 73% | 1012.8 hPa | 0 mm | - | - | - |
| 1778009797 | 15° C | 67% | 1012.4 hPa | 0 mm | - | - | - |
| 1778009173 | 15° C | 66% | 1012.2 hPa | 0 mm | - | - | - |
| 1778007973 | 15.56° C | 66% | 1012.2 hPa | 0 mm | - | - | - |
| 1778000773 | 16.67° C | 63% | 1012.4 hPa | 0 mm | - | - | - |
| 1777999573 | 16.67° C | 63% | 1012.4 hPa | 0 mm | - | - | - |
| 1777998997 | 17.22° C | 61% | 1012.2 hPa | 0 mm | - | - | - |
| 1777996013 | 17.78° C | 57% | 1012.2 hPa | 0 mm | - | - | - |
| 1777995397 | 17.78° C | 56% | 1012.4 hPa | 0 mm | - | - | - |
| 1777994793 | 18.33° C | 57% | 1012.3 hPa | 0 mm | - | - | - |
| 1777994197 | 17.78° C | 58% | 1012.3 hPa | 0 mm | - | - | - |
| 1777993573 | 17.78° C | 59% | 1012.2 hPa | 0 mm | - | - | - |
| 1777982773 | 16.11° C | 64% | 1012.5 hPa | 0 mm | - | - | - |
| 1777981593 | 15.56° C | 67% | 1012.7 hPa | 0 mm | - | - | - |
| 1777979798 | 15° C | 66% | 1012.8 hPa | 0 mm | - | - | - |
| 1777977973 | 15.56° C | 70% | 1012.9 hPa | 0 mm | - | - | - |
| 1777966884 | 11.11° C | 91% | 1012.2 hPa | 0 mm | - | - | - |
| 1777966308 | 11.11° C | 91% | 1012.3 hPa | 0 mm | - | - | - |
| 1777965684 | 11.67° C | 92% | 1012.4 hPa | 0 mm | - | - | - |
| 1777965108 | 11.11° C | 92% | 1012.3 hPa | 0 mm | - | - | - |
* Rain latest hour (hover to see other rain measurements)
** Current wind speed in m/s (hover to see current wind gust speed)